首页
METAR-TAF:

METAR-TAF

机场 :

Albert Lea, 明尼蘇達州, 美国

纬度: 43-41N, 经度: 093-22W, 海拔: 383米

当前天气观测

该预报发布于20分钟前的21:15 UTC
风速4节,风向西南
温度 21°C
湿度 64%
气压 1018 hPa
能見度: 16.1公里
阴天层高于7500英尺

METAR: KAEL 052115Z AUTO 22004KT 10SM OVC075 21/14 A3007 RMK AO2

时间: 16:35 (21:35 UTC)


TAF: 丢失

超过4000个机场的气象观测和天气预报(METAR&TAF报告)。

可查询的气象台以黄色和红色小点在地图上表示。

将鼠标移到小点上方,可查看气象台名称。

然后点击查看天气观测和预报。

如需切换地图:点击带黑十字的绿色按钮放大地图;点击带横线的绿色按钮缩小地图;或者点击绿色箭头查看邻近地区的地图。


METAR-TAF: